sensor_id;sensor_type;location;lat;lon;timestamp;pressure;altitude;pressure_sealevel;temperature;humidity
22582;BME280;47125;48.542;9.052;2023-04-23T00:02:15;95430.09;;;14.99;62.14
22582;BME280;47125;48.542;9.052;2023-04-23T00:12:21;95424.72;;;14.99;61.88
22582;BME280;47125;48.542;9.052;2023-04-23T00:22:23;95430.03;;;15.09;61.09
22582;BME280;47125;48.542;9.052;2023-04-23T00:32:27;95430.72;;;14.86;62.56
22582;BME280;47125;48.542;9.052;2023-04-23T00:42:30;95439.44;;;14.68;64.85
22582;BME280;47125;48.542;9.052;2023-04-23T00:52:34;95440.34;;;14.43;68.09
22582;BME280;47125;48.542;9.052;2023-04-23T01:02:39;95452.41;;;14.46;69.62
22582;BME280;47125;48.542;9.052;2023-04-23T01:12:45;95457.84;;;14.20;70.66
22582;BME280;47125;48.542;9.052;2023-04-23T01:22:49;95458.91;;;14.19;71.21
22582;BME280;47125;48.542;9.052;2023-04-23T01:32:52;95472.03;;;14.31;71.29
22582;BME280;47125;48.542;9.052;2023-04-23T01:42:56;95476.38;;;14.07;71.48
22582;BME280;47125;48.542;9.052;2023-04-23T01:52:59;95471.56;;;14.04;72.29
22582;BME280;47125;48.542;9.052;2023-04-23T02:03:03;95490.59;;;14.38;71.75
22582;BME280;47125;48.542;9.052;2023-04-23T02:13:06;95492.75;;;14.10;74.58
22582;BME280;47125;48.542;9.052;2023-04-23T02:23:09;95493.59;;;14.06;76.23
22582;BME280;47125;48.542;9.052;2023-04-23T02:33:12;95497.06;;;14.11;77.25
22582;BME280;47125;48.542;9.052;2023-04-23T02:43:15;95502.19;;;13.93;79.11
22582;BME280;47125;48.542;9.052;2023-04-23T02:53:18;95496.81;;;14.03;78.65
22582;BME280;47125;48.542;9.052;2023-04-23T03:03:22;95488.50;;;13.84;80.08
22582;BME280;47125;48.542;9.052;2023-04-23T03:13:26;95467.03;;;13.89;79.88
22582;BME280;47125;48.542;9.052;2023-04-23T03:23:30;95470.25;;;13.86;79.74
22582;BME280;47125;48.542;9.052;2023-04-23T03:33:33;95464.34;;;13.59;81.99
22582;BME280;47125;48.542;9.052;2023-04-23T03:43:37;95482.59;;;13.67;82.80
22582;BME280;47125;48.542;9.052;2023-04-23T03:53:39;95484.50;;;13.66;83.46
22582;BME280;47125;48.542;9.052;2023-04-23T04:03:43;95491.19;;;13.69;82.94
22582;BME280;47125;48.542;9.052;2023-04-23T04:13:45;95489.03;;;13.61;82.14
22582;BME280;47125;48.542;9.052;2023-04-23T04:23:49;95481.00;;;13.66;81.65
22582;BME280;47125;48.542;9.052;2023-04-23T04:33:52;95484.75;;;13.55;81.23
22582;BME280;47125;48.542;9.052;2023-04-23T04:43:56;95485.84;;;13.49;82.32
22582;BME280;47125;48.542;9.052;2023-04-23T04:53:59;95486.09;;;13.47;82.49
22582;BME280;47125;48.542;9.052;2023-04-23T05:04:03;95489.56;;;13.33;83.77
22582;BME280;47125;48.542;9.052;2023-04-23T05:14:06;95496.00;;;13.32;84.11
22582;BME280;47125;48.542;9.052;2023-04-23T05:24:09;95493.31;;;13.32;83.91
22582;BME280;47125;48.542;9.052;2023-04-23T05:34:12;95495.47;;;13.35;82.91
22582;BME280;47125;48.542;9.052;2023-04-23T05:44:16;95476.69;;;13.30;83.40
22582;BME280;47125;48.542;9.052;2023-04-23T05:54:18;95492.50;;;13.31;82.59
22582;BME280;47125;48.542;9.052;2023-04-23T06:04:22;95493.88;;;13.39;82.51
22582;BME280;47125;48.542;9.052;2023-04-23T06:14:25;95487.97;;;13.57;81.70
22582;BME280;47125;48.542;9.052;2023-04-23T06:24:29;95493.88;;;13.59;80.26
22582;BME280;47125;48.542;9.052;2023-04-23T06:34:31;95485.56;;;13.75;76.77
22582;BME280;47125;48.542;9.052;2023-04-23T06:44:35;95503.53;;;13.95;76.60
22582;BME280;47125;48.542;9.052;2023-04-23T06:54:37;95484.50;;;13.82;75.64
22582;BME280;47125;48.542;9.052;2023-04-23T07:04:41;95468.09;;;13.93;74.86
22582;BME280;47125;48.542;9.052;2023-04-23T07:14:44;95478.84;;;13.68;73.27
22582;BME280;47125;48.542;9.052;2023-04-23T07:24:48;95463.25;;;13.85;72.05
22582;BME280;47125;48.542;9.052;2023-04-23T07:34:51;95461.34;;;14.16;70.63
22582;BME280;47125;48.542;9.052;2023-04-23T07:44:54;95441.16;;;14.39;69.61
22582;BME280;47125;48.542;9.052;2023-04-23T07:54:57;95445.91;;;14.62;66.95
22582;BME280;47125;48.542;9.052;2023-04-23T08:05:01;95450.22;;;14.63;65.04
22582;BME280;47125;48.542;9.052;2023-04-23T08:15:04;95451.19;;;14.82;64.51
22582;BME280;47125;48.542;9.052;2023-04-23T08:25:08;95425.41;;;14.76;65.41
22582;BME280;47125;48.542;9.052;2023-04-23T08:35:10;95435.84;;;15.26;64.41
22582;BME280;47125;48.542;9.052;2023-04-23T08:45:15;95415.25;;;15.51;61.02
22582;BME280;47125;48.542;9.052;2023-04-23T08:55:17;95418.47;;;15.81;59.72
22582;BME280;47125;48.542;9.052;2023-04-23T09:05:21;95411.94;;;15.87;56.92
22582;BME280;47125;48.542;9.052;2023-04-23T09:15:23;95384.78;;;16.08;55.36
22582;BME280;47125;48.542;9.052;2023-04-23T09:25:28;95375.63;;;16.32;57.06
22582;BME280;47125;48.542;9.052;2023-04-23T09:35:31;95387.78;;;16.06;55.37
22582;BME280;47125;48.542;9.052;2023-04-23T09:45:37;95377.69;;;16.17;56.63
22582;BME280;47125;48.542;9.052;2023-04-23T09:55:48;95363.69;;;16.62;55.38
22582;BME280;47125;48.542;9.052;2023-04-23T10:05:55;95331.19;;;16.91;53.87
22582;BME280;47125;48.542;9.052;2023-04-23T10:16:03;95325.91;;;17.18;54.86
22582;BME280;47125;48.542;9.052;2023-04-23T10:26:23;95305.66;;;17.80;51.95
22582;BME280;47125;48.542;9.052;2023-04-23T10:36:26;95304.47;;;17.86;52.19
22582;BME280;47125;48.542;9.052;2023-04-23T10:46:31;95285.69;;;18.08;50.76
22582;BME280;47125;48.542;9.052;2023-04-23T10:56:36;95275.84;;;18.26;51.23
22582;BME280;47125;48.542;9.052;2023-04-23T11:06:53;95270.84;;;18.20;49.62
22582;BME280;47125;48.542;9.052;2023-04-23T11:16:58;95267.78;;;18.48;49.28
22582;BME280;47125;48.542;9.052;2023-04-23T11:27:03;95259.63;;;18.98;48.61
22582;BME280;47125;48.542;9.052;2023-04-23T11:37:08;95240.84;;;18.43;48.06
22582;BME280;47125;48.542;9.052;2023-04-23T11:47:13;95226.84;;;18.77;48.77
22582;BME280;47125;48.542;9.052;2023-04-23T11:57:16;95219.66;;;18.95;48.68
22582;BME280;47125;48.542;9.052;2023-04-23T12:07:29;95208.03;;;19.56;46.33
22582;BME280;47125;48.542;9.052;2023-04-23T12:17:32;95193.34;;;19.88;44.76
22582;BME280;47125;48.542;9.052;2023-04-23T12:27:38;95173.47;;;20.18;45.98
22582;BME280;47125;48.542;9.052;2023-04-23T12:37:42;95161.00;;;20.94;44.34
22582;BME280;47125;48.542;9.052;2023-04-23T12:47:46;95154.84;;;20.59;42.76
22582;BME280;47125;48.542;9.052;2023-04-23T12:57:51;95135.91;;;19.60;46.09
22582;BME280;47125;48.542;9.052;2023-04-23T13:07:54;95114.09;;;19.73;49.47
22582;BME280;47125;48.542;9.052;2023-04-23T13:17:57;95096.91;;;20.04;44.96
22582;BME280;47125;48.542;9.052;2023-04-23T13:28:01;95094.69;;;19.89;45.88
22582;BME280;47125;48.542;9.052;2023-04-23T13:38:03;95063.13;;;21.37;43.75
22582;BME280;47125;48.542;9.052;2023-04-23T13:48:07;95044.22;;;21.70;42.63
22582;BME280;47125;48.542;9.052;2023-04-23T13:58:09;95029.28;;;22.26;42.50
22582;BME280;47125;48.542;9.052;2023-04-23T14:08:14;95013.59;;;21.81;43.90
22582;BME280;47125;48.542;9.052;2023-04-23T14:18:16;94999.84;;;21.36;40.14
22582;BME280;47125;48.542;9.052;2023-04-23T14:28:27;94986.16;;;20.95;41.51
22582;BME280;47125;48.542;9.052;2023-04-23T14:38:30;94958.81;;;20.33;42.86
22582;BME280;47125;48.542;9.052;2023-04-23T14:48:34;94959.72;;;20.37;42.77
22582;BME280;47125;48.542;9.052;2023-04-23T14:58:36;94951.84;;;19.98;43.75
22582;BME280;47125;48.542;9.052;2023-04-23T15:08:40;94965.50;;;19.15;43.78
22582;BME280;47125;48.542;9.052;2023-04-23T15:18:42;94968.66;;;18.30;47.97
22582;BME280;47125;48.542;9.052;2023-04-23T15:28:47;94938.84;;;18.44;61.95
22582;BME280;47125;48.542;9.052;2023-04-23T15:38:49;94937.00;;;18.53;63.13
22582;BME280;47125;48.542;9.052;2023-04-23T15:48:53;94948.38;;;18.41;61.06
22582;BME280;47125;48.542;9.052;2023-04-23T15:58:55;94963.28;;;17.99;62.08
22582;BME280;47125;48.542;9.052;2023-04-23T16:08:59;95051.59;;;15.76;67.69
22582;BME280;47125;48.542;9.052;2023-04-23T16:19:02;95020.09;;;16.09;67.25
22582;BME280;47125;48.542;9.052;2023-04-23T16:29:06;95004.25;;;16.21;68.90
22582;BME280;47125;48.542;9.052;2023-04-23T16:39:23;94982.22;;;16.32;68.16
22582;BME280;47125;48.542;9.052;2023-04-23T16:49:26;94982.97;;;15.92;70.90
22582;BME280;47125;48.542;9.052;2023-04-23T16:59:29;95004.03;;;15.53;67.04
22582;BME280;47125;48.542;9.052;2023-04-23T17:09:33;94995.97;;;15.53;68.39
22582;BME280;47125;48.542;9.052;2023-04-23T17:19:35;94994.41;;;15.65;70.14
22582;BME280;47125;48.542;9.052;2023-04-23T17:29:39;94992.81;;;15.83;69.38
22582;BME280;47125;48.542;9.052;2023-04-23T17:39:42;94997.44;;;15.77;70.82
22582;BME280;47125;48.542;9.052;2023-04-23T17:49:45;94991.28;;;15.77;70.04
22582;BME280;47125;48.542;9.052;2023-04-23T17:59:48;94999.50;;;15.67;71.60
22582;BME280;47125;48.542;9.052;2023-04-23T18:09:52;95003.16;;;15.57;74.80
22582;BME280;47125;48.542;9.052;2023-04-23T18:19:55;95000.63;;;15.47;74.88
22582;BME280;47125;48.542;9.052;2023-04-23T18:30:00;95002.56;;;15.23;73.80
22582;BME280;47125;48.542;9.052;2023-04-23T18:40:03;95014.75;;;15.15;75.64
22582;BME280;47125;48.542;9.052;2023-04-23T18:50:08;95021.72;;;14.98;74.63
22582;BME280;47125;48.542;9.052;2023-04-23T19:00:23;95052.53;;;15.05;74.37
22582;BME280;47125;48.542;9.052;2023-04-23T19:10:27;95117.88;;;14.53;72.89
22582;BME280;47125;48.542;9.052;2023-04-23T19:20:29;95124.88;;;14.15;73.28
22582;BME280;47125;48.542;9.052;2023-04-23T19:30:33;95133.13;;;13.85;75.75
22582;BME280;47125;48.542;9.052;2023-04-23T19:40:36;95123.56;;;13.74;76.60
22582;BME280;47125;48.542;9.052;2023-04-23T19:50:39;95143.34;;;13.83;75.02
22582;BME280;47125;48.542;9.052;2023-04-23T20:00:42;95143.41;;;13.78;73.32
22582;BME280;47125;48.542;9.052;2023-04-23T20:10:46;95146.16;;;13.58;74.18
22582;BME280;47125;48.542;9.052;2023-04-23T20:20:49;95149.13;;;13.61;73.73
22582;BME280;47125;48.542;9.052;2023-04-23T20:30:54;95133.91;;;13.52;72.41
22582;BME280;47125;48.542;9.052;2023-04-23T20:40:57;95127.97;;;13.55;71.96
22582;BME280;47125;48.542;9.052;2023-04-23T20:51:03;95137.66;;;13.51;73.04
22582;BME280;47125;48.542;9.052;2023-04-23T21:01:06;95142.25;;;13.40;73.35
22582;BME280;47125;48.542;9.052;2023-04-23T21:11:13;95134.53;;;13.34;72.97
22582;BME280;47125;48.542;9.052;2023-04-23T21:21:16;95117.91;;;13.27;73.47
22582;BME280;47125;48.542;9.052;2023-04-23T21:31:26;95107.59;;;13.54;73.32
22582;BME280;47125;48.542;9.052;2023-04-23T21:41:30;95119.72;;;13.41;72.59
22582;BME280;47125;48.542;9.052;2023-04-23T21:51:34;95126.53;;;13.18;72.98
22582;BME280;47125;48.542;9.052;2023-04-23T22:01:38;95133.41;;;13.40;71.63
22582;BME280;47125;48.542;9.052;2023-04-23T22:11:42;95118.41;;;13.39;70.44
22582;BME280;47125;48.542;9.052;2023-04-23T22:22:01;95088.69;;;13.25;70.75
22582;BME280;47125;48.542;9.052;2023-04-23T22:32:05;95105.41;;;13.56;69.07
22582;BME280;47125;48.542;9.052;2023-04-23T22:42:07;95113.75;;;13.49;68.51
22582;BME280;47125;48.542;9.052;2023-04-23T22:52:11;95093.72;;;13.42;68.34
22582;BME280;47125;48.542;9.052;2023-04-23T23:02:15;95083.78;;;13.42;68.21
22582;BME280;47125;48.542;9.052;2023-04-23T23:12:19;95088.38;;;13.37;67.58
22582;BME280;47125;48.542;9.052;2023-04-23T23:22:22;95078.75;;;13.25;67.41
22582;BME280;47125;48.542;9.052;2023-04-23T23:32:26;95078.31;;;13.03;68.29
22582;BME280;47125;48.542;9.052;2023-04-23T23:42:28;95070.22;;;13.23;67.95
22582;BME280;47125;48.542;9.052;2023-04-23T23:52:32;95051.25;;;12.95;67.82
